• Join FlightAware (Why Join?)
  • Login
  • US Flag 
09:24AM EDT


 

Airport Tracker/Info


-or-


 

Live Flight TrackerFlight Track Log ✈ EJA396 ✈ 30-Jul-2013 ✈ KHHR - KSJC

Flight Track Log - Related Links

Times and Time Zones

All times are in EDT time to prevent confusion due to time zone crossing. See the EJA396 flight status page for this flight to view local times or setup timezone preferences in your user account.

Time Position Orientation Groundspeed Altitude Reporting Facility
EDT Latitude Longitude Course Direction KTS MPH feet Rate Location/Type
06:12PM 33.9030 -118.3690 North 177 204 2,200  Level FlightAware
06:12PM 33.9000 -118.3667 294° West 174 200 2,500 4,500 Climbing Southern California TRACON
06:12PM 33.8950 -118.3810 231° Southwest 175 201 3,400 1,260 Climbing FlightAware
06:13PM 33.8810 -118.3970 223° Southwest 175 201 3,400 4,800 Level FlightAware
06:13PM 33.8667 -118.4167 231° Southwest 220 253 7,100 5,760 Climbing Southern California TRACON
06:14PM 33.8711 -118.5036 274° West 228 262 11,700 2,760 Climbing Los Angeles Center
06:15PM 34.0175 -118.5280 301° West  Level Estimated
06:15PM 33.8694 -118.6039 269° West 317 365 13,100  Level Los Angeles Center
06:16PM 34.0919 -118.5997 287° West  Level Estimated
06:16PM 33.8656 -118.7375 268° West 369 425 13,600  Level Los Angeles Center
06:17PM 34.1662 -118.6714 294° West  Level Estimated
06:17PM 33.8628 -118.8431 268° West 363 418 16,500  Level Los Angeles Center
06:18PM 33.9281 -118.9622 303° West 357 411 20,200 3,180 Climbing Los Angeles Center
06:19PM 33.9928 -119.0522 311° West 355 409 23,100 2,760 Climbing Los Angeles Center
06:20PM 34.0594 -119.1444 311° West 362 417 25,900 2,160 Climbing Los Angeles Center
06:22PM 34.1419 -119.2586 311° West 376 433 28,000 900 Climbing Los Angeles Center
06:23PM 34.2053 -119.3483 310° West 436 502 28,000  Level Los Angeles Center
06:24PM 34.3061 -119.4897 311° West 464 534 28,000  Level Los Angeles Center
06:25PM 34.3894 -119.6058 311° West 459 528 28,000  Level Los Angeles Center
06:26PM 34.4908 -119.7458 311° West 462 532 28,000  Level Los Angeles Center
06:27PM 34.5936 -119.8394 323° Northwest 465 535 28,000  Level Los Angeles Center
06:28PM 34.6978 -119.9269 325° Northwest 467 537 28,000  Level Los Angeles Center
06:29PM 34.8053 -120.0156 326° Northwest 466 536 28,000  Level Los Angeles Center
06:30PM 34.9097 -120.1028 326° Northwest 465 535 28,000  Level Los Angeles Center
06:31PM 35.0189 -120.1936 326° Northwest 475 547 28,000  Level Los Angeles Center
06:32PM 35.1469 -120.3000 326° Northwest 473 544 28,000  Level Los Angeles Center
06:33PM 35.2528 -120.3883 326° Northwest 472 543 28,000  Level Los Angeles Center
06:34PM 35.3622 -120.4797 326° Northwest 485 558 28,000  Level Los Angeles Center
06:35PM 35.4669 -120.5714 325° Northwest 478 550 28,000  Level Los Angeles Center
06:36PM 35.5744 -120.6617 326° Northwest 470 541 28,000  Level Los Angeles Center
06:37PM 35.6953 -120.7647 325° Northwest 469 540 28,000  Level Los Angeles Center
06:38PM 35.8028 -120.8558 326° Northwest 468 539 28,000  Level Los Angeles Center
06:39PM 35.9094 -120.9472 325° Northwest 468 539 28,000  Level Los Angeles Center
06:40PM 36.0606 -121.0767 325° Northwest 470 541 28,000 -240 Level Oakland Center
06:41PM 36.1669 -121.1689 325° Northwest 469 540 27,500 -1,320 Descending Oakland Center
06:42PM 36.2719 -121.2606 325° Northwest 464 534 25,300 -2,580 Descending Oakland Center
06:43PM 36.3925 -121.3625 326° Northwest 437 503 22,300 -2,760 Descending Oakland Center
06:45PM 36.4878 -121.4469 325° Northwest 423 487 19,800 -2,220 Descending Oakland Center
06:46PM 36.5842 -121.5144 331° Northwest 399 459 17,800 -2,100 Descending Oakland Center
06:47PM 36.6931 -121.5294 354° North 394 453 15,500 -2,280 Descending Oakland Center
06:48PM 36.7992 -121.5433 354° North 384 442 13,200 -2,100 Descending Oakland Center
06:49PM 36.8978 -121.5561 354° North 376 433 11,200 -1,920 Descending Oakland Center
06:50PM 36.9878 -121.5650 355° North 337 388 9,300 -1,680 Descending Oakland Center
06:51PM 37.1000 -121.6500 329° Northwest 272 313 6,700 -1,620 Descending Northern Cal TRACON
06:52PM 37.1667 -121.7167 321° Northwest 271 312 5,000 -1,560 Descending Northern Cal TRACON
06:53PM 37.2167 -121.7667 321° Northwest 256 295 3,600 -1,320 Descending Northern Cal TRACON
06:54PM 37.2667 -121.8167 321° Northwest 215 247 2,400 -1,080 Descending Northern Cal TRACON
06:55PM 37.3000 -121.8667 310° West 171 197 1,500 -840 Descending Northern Cal TRACON
06:56PM 37.3333 -121.9000 322° Northwest 140 161 800 -720 Descending Northern Cal TRACON
06:57PM 37.3439 -121.9103 322° Northwest 162 186 500 -480 Descending Oakland Center
06:58PM 37.3667 -121.9342 320° Northwest 131 151 100 -420 Descending Oakland Center
07:00PM 37.3627 -121.9291 142° Southeast  Level Estimated